Time;durP1;ratioP1;P1;durP2;ratioP2;P2;SDS_P1;SDS_P2;PMS_P1;PMS_P2;Temp;Humidity;BMP_temperature;BMP_pressure;BME280_temperature;BME280_humidity;BME280_pressure;Samples;Min_cycle;Max_cycle;Signal;HPM_P1;HPM_P2
2022/02/26 05:01:22;;;;;;;19.20;3.28;;;3.40;99.90;;;;;;5473780;23;20245;-69
2022/02/26 05:03:49;;;;;;;8.02;2.80;;;3.40;99.90;;;;;;4936657;29;20272;-71
2022/02/26 05:06:16;;;;;;;15.70;4.13;;;3.30;99.90;;;;;;4936543;29;20217;-68
2022/02/26 05:08:42;;;;;;;12.27;4.00;;;3.40;99.90;;;;;;4936808;29;20216;-69
2022/02/26 05:11:09;;;;;;;10.45;2.92;;;3.30;99.90;;;;;;4936753;29;20365;-69
2022/02/26 05:13:37;;;;;;;3.72;2.53;;;3.30;99.90;;;;;;4936473;29;20622;-69
2022/02/26 05:16:04;;;;;;;18.25;3.67;;;3.30;99.90;;;;;;4966836;23;20652;-69
2022/02/26 05:18:33;;;;;;;10.70;3.00;;;3.30;99.90;;;;;;4973931;28;20271;-69
2022/02/26 05:21:00;;;;;;;15.98;3.08;;;3.30;99.90;;;;;;4973686;28;20590;-69
2022/02/26 05:23:27;;;;;;;7.57;2.42;;;3.30;99.90;;;;;;4973182;28;20216;-69
2022/02/26 05:25:53;;;;;;;17.88;3.47;;;3.30;99.90;;;;;;4964912;28;20237;-70
2022/02/26 05:28:20;;;;;;;20.80;3.75;;;3.30;99.90;;;;;;4954043;28;20225;-69
2022/02/26 05:30:46;;;;;;;5.10;3.10;;;3.30;99.90;;;;;;4953827;28;20206;-69
2022/02/26 05:33:13;;;;;;;12.68;3.97;;;3.30;99.90;;;;;;4953427;28;20217;-69
2022/02/26 05:35:41;;;;;;;14.63;2.80;;;3.30;99.90;;;;;;4953930;28;20225;-69
2022/02/26 05:38:08;;;;;;;8.65;3.42;;;3.30;99.90;;;;;;4953389;28;20630;-69
2022/02/26 05:40:35;;;;;;;12.02;4.25;;;3.30;99.90;;;;;;4953480;28;20249;-69
2022/02/26 05:43:01;;;;;;;9.52;2.72;;;3.20;99.90;;;;;;4953952;28;20232;-69
2022/02/26 05:45:28;;;;;;;10.38;3.05;;;3.20;99.90;;;;;;4953123;28;20230;-69
2022/02/26 05:47:55;;;;;;;9.68;3.67;;;3.20;99.90;;;;;;4950131;28;20202;-69
2022/02/26 05:50:21;;;;;;;9.82;2.70;;;3.20;99.90;;;;;;4941439;29;20633;-69
2022/02/26 05:52:49;;;;;;;12.18;3.20;;;3.20;99.90;;;;;;4940762;28;20619;-69
2022/02/26 05:55:16;;;;;;;12.68;3.00;;;3.20;99.90;;;;;;4948893;29;20236;-70
2022/02/26 05:57:43;;;;;;;3.58;1.90;;;3.10;99.90;;;;;;4953670;28;20213;-70
2022/02/26 06:00:11;;;;;;;11.60;3.15;;;3.10;99.90;;;;;;4953464;28;20577;-69
2022/02/26 06:02:38;;;;;;;21.50;3.42;;;3.10;99.90;;;;;;4953765;28;20216;-69
2022/02/26 06:05:05;;;;;;;9.60;2.60;;;3.10;99.90;;;;;;4953438;28;20219;-69
2022/02/26 06:07:32;;;;;;;9.00;2.80;;;3.10;99.90;;;;;;4952698;28;20205;-69
2022/02/26 06:10:00;;;;;;;8.55;2.40;;;3.10;99.90;;;;;;4953036;28;20681;-69
2022/02/26 06:12:27;;;;;;;6.97;2.15;;;3.00;99.90;;;;;;4953280;28;20209;-70
2022/02/26 06:14:54;;;;;;;7.32;2.85;;;3.10;99.90;;;;;;4953609;28;20547;-70
2022/02/26 06:17:20;;;;;;;12.77;3.30;;;3.00;99.90;;;;;;4952743;28;20216;-70
2022/02/26 06:19:47;;;;;;;19.95;3.55;;;3.00;99.90;;;;;;4952943;28;20249;-69
2022/02/26 06:22:14;;;;;;;7.93;3.40;;;3.00;99.90;;;;;;4943468;28;20932;-70
2022/02/26 06:24:41;;;;;;;6.55;2.92;;;3.00;99.90;;;;;;4934058;29;20209;-70
2022/02/26 06:27:09;;;;;;;7.80;3.38;;;3.00;99.90;;;;;;4940913;29;20225;-69
2022/02/26 06:29:36;;;;;;;17.45;3.20;;;3.00;99.90;;;;;;4952551;28;20670;-70
2022/02/26 06:32:03;;;;;;;9.40;3.08;;;2.90;99.90;;;;;;4947597;28;20209;-70
2022/02/26 06:34:30;;;;;;;13.73;2.92;;;3.00;99.90;;;;;;4938298;29;20664;-70
2022/02/26 06:36:56;;;;;;;17.92;3.03;;;3.00;99.90;;;;;;4950224;28;20232;-69
2022/02/26 06:39:23;;;;;;;5.75;2.50;;;3.00;99.90;;;;;;4936315;29;20276;-70
2022/02/26 06:41:50;;;;;;;6.60;1.90;;;3.00;99.90;;;;;;4952963;28;20316;-70
2022/02/26 06:44:18;;;;;;;10.70;3.10;;;3.00;99.90;;;;;;4954211;28;20217;-70
2022/02/26 06:46:47;;;;;;;10.38;2.85;;;3.00;99.90;;;;;;4954042;28;20236;-70
2022/02/26 06:49:14;;;;;;;8.00;3.13;;;3.00;99.90;;;;;;4952280;28;20308;-70
2022/02/26 06:51:41;;;;;;;18.90;3.78;;;3.00;99.90;;;;;;4952315;28;20213;-70
2022/02/26 06:54:08;;;;;;;16.40;3.47;;;3.00;99.90;;;;;;4944355;28;20206;-70
2022/02/26 06:56:34;;;;;;;9.00;2.55;;;3.10;99.90;;;;;;4934348;29;20289;-70
2022/02/26 06:59:01;;;;;;;7.03;2.63;;;3.10;99.90;;;;;;4949326;29;20268;-70
2022/02/26 07:01:29;;;;;;;7.80;4.30;;;3.10;99.90;;;;;;4948899;28;20736;-70
2022/02/26 07:03:56;;;;;;;17.23;4.78;;;3.10;99.90;;;;;;4947474;29;20299;-70
2022/02/26 07:06:22;;;;;;;6.45;2.85;;;3.20;99.90;;;;;;4946295;28;20236;-73
2022/02/26 07:08:49;;;;;;;16.52;4.07;;;3.20;99.90;;;;;;4952686;28;20232;-70
2022/02/26 07:11:16;;;;;;;17.23;3.72;;;3.20;99.90;;;;;;4951676;28;20213;-70
2022/02/26 07:13:42;;;;;;;15.30;3.53;;;3.30;99.90;;;;;;4952415;28;20213;-70
2022/02/26 07:16:09;;;;;;;18.55;3.72;;;3.30;99.90;;;;;;4952641;28;20233;-69
2022/02/26 07:18:37;;;;;;;9.57;3.08;;;3.40;99.90;;;;;;4952448;28;20297;-69
2022/02/26 07:21:04;;;;;;;21.85;4.10;;;3.60;99.90;;;;;;4952063;28;20225;-69
2022/02/26 07:23:30;;;;;;;7.55;2.70;;;3.60;99.90;;;;;;4942712;28;20205;-70
2022/02/26 07:25:58;;;;;;;13.77;4.05;;;3.60;99.90;;;;;;4952359;28;20317;-70
2022/02/26 07:28:25;;;;;;;9.10;3.00;;;3.60;99.90;;;;;;4941529;28;20216;-70
2022/02/26 07:30:52;;;;;;;15.60;3.97;;;3.70;99.90;;;;;;4952236;28;20633;-70
2022/02/26 07:33:19;;;;;;;12.77;4.15;;;3.70;99.90;;;;;;4945786;28;20285;-70
2022/02/26 07:35:47;;;;;;;7.63;3.40;;;3.70;99.90;;;;;;4948390;29;21329;-70
2022/02/26 07:38:14;;;;;;;10.27;3.30;;;3.80;99.90;;;;;;4949835;28;20237;-70
2022/02/26 07:40:42;;;;;;;8.43;3.40;;;3.80;99.90;;;;;;4944942;29;20300;-69
2022/02/26 07:43:09;;;;;;;13.10;2.95;;;3.90;99.90;;;;;;4937655;29;20205;-69
2022/02/26 07:45:36;;;;;;;10.02;2.60;;;3.90;99.90;;;;;;4949344;29;20741;-70
2022/02/26 07:48:02;;;;;;;15.45;3.53;;;3.90;99.90;;;;;;4947124;28;20217;-70
2022/02/26 07:50:29;;;;;;;7.15;3.10;;;4.00;99.90;;;;;;4939953;28;20319;-70
2022/02/26 07:52:57;;;;;;;14.10;3.03;;;4.00;99.90;;;;;;4939505;29;20216;-70
2022/02/26 07:55:24;;;;;;;6.95;2.60;;;4.10;99.90;;;;;;4952892;28;20321;-70
2022/02/26 07:57:51;;;;;;;12.25;3.10;;;4.10;99.90;;;;;;4955744;28;20205;-70
2022/02/26 08:00:18;;;;;;;16.42;4.00;;;4.20;99.90;;;;;;4955724;28;20228;-70
2022/02/26 08:02:45;;;;;;;8.13;3.35;;;4.20;99.90;;;;;;4955913;28;20204;-71
2022/02/26 08:05:11;;;;;;;18.77;3.80;;;4.20;99.90;;;;;;4955616;28;20323;-71
2022/02/26 08:07:38;;;;;;;9.85;2.92;;;4.30;99.90;;;;;;4948572;28;20218;-70
2022/02/26 08:10:07;;;;;;;11.35;3.00;;;4.30;99.90;;;;;;4947786;29;20275;-70
2022/02/26 08:12:34;;;;;;;11.02;2.30;;;4.40;99.90;;;;;;4954131;29;20209;-70
2022/02/26 08:15:01;;;;;;;7.22;3.17;;;4.40;99.90;;;;;;4955734;28;20217;-71
2022/02/26 08:17:27;;;;;;;8.30;2.60;;;4.40;99.90;;;;;;4943292;28;20213;-70
2022/02/26 08:19:55;;;;;;;10.85;3.10;;;4.50;99.90;;;;;;4955937;28;20372;-70
2022/02/26 08:22:22;;;;;;;15.85;3.08;;;4.60;99.90;;;;;;4953769;28;20229;-70
2022/02/26 08:24:48;;;;;;;17.30;3.40;;;4.60;99.90;;;;;;4955496;28;20264;-70
2022/02/26 08:27:17;;;;;;;7.38;2.35;;;4.70;99.90;;;;;;4955548;28;20213;-70
2022/02/26 08:29:43;;;;;;;11.60;3.80;;;4.70;99.90;;;;;;4955258;28;20497;-70
2022/02/26 08:32:10;;;;;;;10.23;2.90;;;4.80;99.90;;;;;;4955147;28;20209;-69
2022/02/26 08:34:37;;;;;;;15.70;3.25;;;4.80;99.90;;;;;;4955848;28;20209;-69
2022/02/26 08:37:04;;;;;;;12.85;3.70;;;4.90;99.90;;;;;;4954557;28;20237;-69
2022/02/26 08:39:31;;;;;;;6.93;2.40;;;5.00;99.90;;;;;;4955537;28;20280;-69
2022/02/26 08:41:57;;;;;;;5.80;2.17;;;5.00;99.90;;;;;;4954569;28;20284;-69
2022/02/26 08:44:26;;;;;;;4.75;2.63;;;5.50;99.90;;;;;;4954963;28;20205;-69
2022/02/26 08:46:52;;;;;;;11.75;2.50;;;5.10;99.90;;;;;;4955362;28;20229;-69
2022/02/26 08:49:19;;;;;;;4.65;2.30;;;5.10;99.90;;;;;;4940628;28;20277;-68
2022/02/26 08:51:46;;;;;;;11.48;2.08;;;5.00;99.90;;;;;;4935231;29;20202;-69
2022/02/26 08:54:12;;;;;;;10.43;2.72;;;5.20;99.90;;;;;;4954333;29;20580;-69
2022/02/26 08:56:39;;;;;;;11.88;2.80;;;5.20;99.90;;;;;;4954855;28;20240;-69
2022/02/26 08:59:06;;;;;;;9.90;2.70;;;5.20;99.90;;;;;;4954700;28;20650;-69
2022/02/26 09:01:34;;;;;;;15.18;3.50;;;5.20;99.90;;;;;;4954564;28;20228;-69
2022/02/26 09:04:01;;;;;;;2.75;2.47;;;5.30;99.90;;;;;;4954656;28;20292;-69
2022/02/26 09:06:28;;;;;;;3.83;2.47;;;5.40;99.90;;;;;;4954535;28;20233;-69
2022/02/26 09:08:55;;;;;;;10.07;2.10;;;5.40;99.90;;;;;;4946807;28;20726;-70
2022/02/26 09:11:22;;;;;;;3.63;2.20;;;5.50;99.90;;;;;;4954684;28;20205;-69
2022/02/26 09:13:49;;;;;;;9.20;3.42;;;5.50;99.90;;;;;;4939930;28;20551;-70
2022/02/26 09:16:16;;;;;;;3.10;1.83;;;5.60;99.90;;;;;;4953388;29;20296;-69
2022/02/26 09:18:45;;;;;;;11.98;2.80;;;5.60;99.90;;;;;;4954767;28;20220;-69
2022/02/26 09:21:13;;;;;;;10.73;2.47;;;5.60;99.90;;;;;;4954313;28;20225;-69
2022/02/26 09:23:40;;;;;;;13.93;2.55;;;5.70;99.90;;;;;;4954186;28;20209;-69
2022/02/26 09:26:08;;;;;;;4.20;2.15;;;5.70;99.90;;;;;;4947540;28;20225;-69
2022/02/26 09:28:37;;;;;;;13.88;2.83;;;5.70;99.90;;;;;;4948990;29;20596;-70
2022/02/26 09:31:04;;;;;;;7.88;1.98;;;5.80;99.90;;;;;;4946942;29;20201;-69
2022/02/26 09:33:31;;;;;;;3.63;2.03;;;5.90;99.90;;;;;;4953269;28;20214;-70
2022/02/26 09:36:00;;;;;;;11.68;1.83;;;5.90;99.90;;;;;;4954281;28;20229;-69
2022/02/26 09:38:28;;;;;;;9.73;1.95;;;6.00;99.90;;;;;;4939990;28;20241;-70
2022/02/26 09:40:55;;;;;;;5.13;1.27;;;6.00;99.90;;;;;;4946742;29;20221;-69
2022/02/26 09:43:23;;;;;;;11.40;2.03;;;6.10;99.90;;;;;;4954457;28;20243;-70
2022/02/26 09:45:50;;;;;;;2.85;1.98;;;6.20;99.90;;;;;;4942864;28;20336;-69
2022/02/26 09:48:17;;;;;;;6.85;1.70;;;6.20;99.90;;;;;;4953754;28;20208;-71
2022/02/26 09:50:44;;;;;;;3.10;1.63;;;6.30;99.90;;;;;;4953674;28;20212;-71
2022/02/26 09:53:13;;;;;;;7.63;2.17;;;6.30;99.90;;;;;;4952962;28;20201;-71
2022/02/26 09:55:40;;;;;;;4.88;3.22;;;6.40;99.90;;;;;;4945408;28;20593;-71
2022/02/26 09:58:07;;;;;;;2.47;1.30;;;6.40;99.90;;;;;;4953977;28;20204;-71
2022/02/26 10:00:34;;;;;;;9.93;1.75;;;6.50;99.90;;;;;;4944783;29;20229;-71
2022/02/26 10:03:00;;;;;;;4.35;1.83;;;6.50;99.90;;;;;;4954540;28;20210;-71
2022/02/26 10:05:28;;;;;;;2.53;1.25;;;6.50;99.90;;;;;;4951267;28;20221;-70
2022/02/26 10:07:55;;;;;;;4.45;1.70;;;6.60;99.90;;;;;;4953951;28;20208;-71
2022/02/26 10:10:25;;;;;;;8.05;1.45;;;6.60;99.90;;;;;;4953131;28;20209;-71
2022/02/26 10:12:54;;;;;;;1.80;1.75;;;6.60;99.90;;;;;;4954561;28;20654;-70
2022/02/26 10:15:24;;;;;;;9.25;2.70;;;6.60;99.90;;;;;;4957340;28;20655;-70
2022/02/26 10:18:03;;;;;;;2.30;1.50;;;6.60;99.90;;;;;;4942175;29;20221;-71
2022/02/26 10:20:31;;;;;;;5.22;1.92;;;6.70;99.90;;;;;;4953805;29;20209;-72
2022/02/26 10:22:58;;;;;;;5.80;1.70;;;6.70;99.90;;;;;;4955357;28;20225;-71
2022/02/26 10:25:28;;;;;;;9.13;2.00;;;6.80;99.90;;;;;;4955134;28;20295;-70
2022/02/26 10:27:56;;;;;;;7.18;1.92;;;6.80;99.90;;;;;;4953685;28;20217;-71
2022/02/26 10:30:25;;;;;;;1.80;1.70;;;6.80;99.90;;;;;;4953103;28;20639;-71
2022/02/26 10:33:09;;;;;;;5.88;2.00;;;6.90;99.90;;;;;;4952858;28;20201;-71
2022/02/26 10:35:40;;;;;;;6.43;1.60;;;6.90;99.90;;;;;;4945515;28;20683;-72
2022/02/26 10:38:15;;;;;;;8.38;2.45;;;6.90;99.90;;;;;;4942222;29;20271;-70
2022/02/26 10:41:06;;;;;;;3.97;1.70;;;7.00;99.90;;;;;;4952316;28;20568;-71
2022/02/26 10:43:49;;;;;;;7.60;1.92;;;7.00;99.90;;;;;;4950481;28;20536;-71
2022/02/26 10:46:26;;;;;;;5.72;1.85;;;7.20;99.90;;;;;;4934112;29;20230;-71
2022/02/26 10:48:55;;;;;;;6.93;1.90;;;7.20;99.90;;;;;;4935913;29;20206;-70
2022/02/26 10:51:23;;;;;;;6.10;1.98;;;7.20;99.90;;;;;;4952050;28;20205;-72
2022/02/26 10:53:51;;;;;;;2.15;1.13;;;7.20;99.90;;;;;;4951509;28;20213;-71
2022/02/26 10:56:19;;;;;;;2.95;1.13;;;7.30;99.90;;;;;;4937033;29;20255;-71
2022/02/26 10:58:46;;;;;;;2.90;0.85;;;7.40;99.90;;;;;;4944706;28;20209;-71
2022/02/26 11:01:16;;;;;;;4.47;1.40;;;7.50;99.90;;;;;;4951472;29;20760;-71
2022/02/26 11:03:43;;;;;;;3.35;1.70;;;7.60;99.90;;;;;;4952604;28;20322;-71
2022/02/26 11:06:12;;;;;;;2.10;1.05;;;7.60;99.90;;;;;;4941628;28;20237;-71
2022/02/26 11:08:40;;;;;;;1.15;1.15;;;7.70;99.90;;;;;;4933541;28;20237;-73
2022/02/26 11:11:08;;;;;;;3.90;1.35;;;7.80;99.90;;;;;;4951194;29;20284;-71
2022/02/26 11:13:38;;;;;;;1.15;0.90;;;7.80;99.90;;;;;;4952790;28;20228;-71
2022/02/26 11:16:07;;;;;;;3.92;1.30;;;7.90;99.90;;;;;;4951836;28;20244;-70
2022/02/26 11:18:42;;;;;;;9.18;1.40;;;7.90;99.90;;;;;;4952463;28;20670;-70
2022/02/26 11:21:10;;;;;;;1.55;1.20;;;8.00;99.90;;;;;;4933713;28;20223;-70
2022/02/26 11:23:38;;;;;;;4.22;0.88;;;8.00;99.90;;;;;;4945488;29;20251;-70
2022/02/26 11:26:07;;;;;;;3.33;0.80;;;8.10;99.90;;;;;;4949263;28;20251;-71
2022/02/26 11:28:37;;;;;;;1.92;1.23;;;8.10;99.90;;;;;;4948586;28;20735;-71
2022/02/26 11:31:08;;;;;;;1.15;0.70;;;8.20;99.90;;;;;;4952729;28;20201;-71
2022/02/26 11:33:36;;;;;;;2.33;0.88;;;8.30;99.90;;;;;;4955364;29;20300;-70
2022/02/26 11:36:05;;;;;;;2.90;1.10;;;8.40;99.90;;;;;;4956183;28;20228;-69
2022/02/26 11:38:34;;;;;;;6.15;1.27;;;8.20;99.90;;;;;;4941760;28;20221;-71
2022/02/26 11:41:22;;;;;;;1.42;0.50;;;8.10;99.90;;;;;;4936949;29;20681;-70
2022/02/26 11:43:52;;;;;;;8.75;1.50;;;8.60;99.90;;;;;;4950209;29;20288;-69
2022/02/26 11:46:24;;;;;;;3.78;1.50;;;8.30;99.90;;;;;;4955698;29;20231;-70
2022/02/26 11:48:51;;;;;;;1.60;0.82;;;8.30;99.90;;;;;;4956478;28;20239;-69
2022/02/26 11:51:18;;;;;;;4.00;0.90;;;8.40;99.90;;;;;;4937878;28;20277;-69
2022/02/26 11:53:46;;;;;;;1.23;0.88;;;8.40;99.90;;;;;;4950882;29;20569;-69
2022/02/26 11:56:14;;;;;;;2.70;0.60;;;8.50;99.90;;;;;;4954249;28;20222;-68
2022/02/26 11:58:43;;;;;;;5.72;1.10;;;8.50;99.90;;;;;;4954531;28;20659;-69
2022/02/26 12:01:13;;;;;;;1.65;1.00;;;8.60;99.90;;;;;;4955745;28;20205;-70
2022/02/26 12:03:49;;;;;;;0.93;0.70;;;8.60;99.90;;;;;;4955985;28;20205;-69
2022/02/26 12:06:32;;;;;;;3.20;0.70;;;8.60;99.90;;;;;;4952251;29;20236;-70
2022/02/26 12:09:01;;;;;;;1.20;0.50;;;8.60;99.90;;;;;;4947156;29;20283;-70
2022/02/26 12:11:37;;;;;;;0.85;0.73;;;8.60;99.90;;;;;;4951197;29;20212;-69
2022/02/26 12:14:07;;;;;;;1.88;0.57;;;8.70;99.90;;;;;;4942243;29;20231;-70
2022/02/26 12:16:37;;;;;;;3.35;0.82;;;8.80;99.90;;;;;;4952220;28;20319;-71
2022/02/26 12:19:08;;;;;;;2.05;0.38;;;8.80;99.90;;;;;;4949466;28;20210;-70
2022/02/26 12:21:36;;;;;;;2.38;0.77;;;8.80;99.90;;;;;;4945039;29;20693;-70
2022/02/26 12:24:13;;;;;;;1.30;0.80;;;8.80;99.90;;;;;;4955292;28;20212;-70
2022/02/26 12:26:45;;;;;;;4.85;0.90;;;8.80;99.90;;;;;;4949253;29;20261;-68
2022/02/26 12:29:23;;;;;;;1.63;0.85;;;8.90;99.90;;;;;;4955265;28;20211;-69
2022/02/26 12:31:59;;;;;;;4.57;0.60;;;8.90;99.90;;;;;;4955151;28;20666;-70
2022/02/26 12:34:27;;;;;;;0.30;0.30;;;9.00;99.90;;;;;;4955751;28;20209;-69
2022/02/26 12:37:10;;;;;;;0.50;0.50;;;9.00;99.90;;;;;;4954622;28;20225;-69
2022/02/26 12:39:39;;;;;;;0.43;0.43;;;9.00;99.90;;;;;;4954796;28;20216;-69
2022/02/26 12:42:06;;;;;;;0.40;0.40;;;9.00;99.90;;;;;;4954384;28;20272;-70
2022/02/26 12:44:38;;;;;;;0.50;0.50;;;9.00;99.90;;;;;;4955401;28;20213;-69
2022/02/26 12:47:07;;;;;;;2.13;0.70;;;9.00;99.90;;;;;;4955200;28;20239;-70
2022/02/26 12:49:35;;;;;;;3.05;0.75;;;9.00;99.90;;;;;;4955085;28;20276;-70
2022/02/26 12:52:04;;;;;;;0.60;0.30;;;9.00;99.90;;;;;;4954427;28;20221;-70
2022/02/26 12:54:31;;;;;;;0.93;0.90;;;9.10;99.90;;;;;;4954963;28;20292;-69
2022/02/26 12:56:58;;;;;;;0.40;0.40;;;9.10;99.90;;;;;;4954702;28;20633;-70
2022/02/26 12:59:27;;;;;;;1.50;0.50;;;9.10;99.90;;;;;;4954961;28;20217;-69
2022/02/26 13:01:54;;;;;;;0.60;0.60;;;9.20;99.90;;;;;;4954352;28;20236;-70
2022/02/26 13:04:24;;;;;;;0.55;0.55;;;9.20;99.90;;;;;;4954822;28;20301;-69
2022/02/26 13:06:52;;;;;;;1.45;0.50;;;9.20;99.90;;;;;;4936213;28;20627;-69
2022/02/26 13:09:19;;;;;;;0.65;0.65;;;9.20;99.90;;;;;;4935627;28;20214;-69
2022/02/26 13:11:47;;;;;;;1.77;0.60;;;9.20;99.90;;;;;;4935432;29;20218;-70
2022/02/26 13:14:14;;;;;;;0.75;0.70;;;9.20;99.90;;;;;;4950441;29;20216;-69
2022/02/26 13:16:43;;;;;;;0.60;0.50;;;9.30;99.90;;;;;;4954409;28;20304;-69
2022/02/26 13:19:10;;;;;;;0.60;0.60;;;9.20;99.90;;;;;;4954660;28;20216;-69
2022/02/26 13:21:39;;;;;;;0.65;0.47;;;9.30;99.90;;;;;;4952472;28;20588;-69
2022/02/26 13:24:08;;;;;;;2.35;0.80;;;9.30;99.90;;;;;;4954374;28;20212;-69
2022/02/26 13:26:35;;;;;;;0.47;0.47;;;9.30;99.90;;;;;;4937678;28;20225;-69
2022/02/26 13:29:07;;;;;;;0.40;0.40;;;9.40;99.90;;;;;;4954617;28;20220;-69
2022/02/26 13:31:35;;;;;;;0.52;0.50;;;9.40;99.90;;;;;;4954323;28;20240;-69
2022/02/26 13:34:17;;;;;;;0.57;0.50;;;9.30;99.90;;;;;;4954507;28;20235;-69
2022/02/26 13:36:48;;;;;;;0.77;0.50;;;9.30;99.90;;;;;;4953418;28;20233;-69
2022/02/26 13:39:16;;;;;;;0.90;0.30;;;9.40;99.90;;;;;;4936401;29;20209;-69
2022/02/26 13:41:43;;;;;;;0.88;0.40;;;9.40;99.90;;;;;;4935288;29;20217;-70
2022/02/26 13:44:12;;;;;;;1.08;0.63;;;9.30;99.90;;;;;;4949257;29;20578;-69
2022/02/26 13:46:43;;;;;;;0.65;0.60;;;9.50;99.90;;;;;;4953731;28;20241;-69
2022/02/26 13:49:14;;;;;;;0.60;0.32;;;9.50;99.90;;;;;;4954518;28;20216;-69
2022/02/26 13:51:43;;;;;;;0.68;0.68;;;9.40;99.80;;;;;;4953068;28;20275;-68
2022/02/26 13:54:15;;;;;;;0.30;0.30;;;9.40;99.90;;;;;;4953305;28;20296;-68
2022/02/26 13:56:42;;;;;;;0.50;0.50;;;9.40;99.80;;;;;;4953540;28;20282;-68
2022/02/26 13:59:11;;;;;;;0.60;0.60;;;9.30;99.30;;;;;;4953196;28;20201;-69
2022/02/26 14:01:50;;;;;;;0.50;0.50;;;9.30;98.70;;;;;;4953697;28;20209;-69
2022/02/26 14:04:21;;;;;;;0.32;0.32;;;9.30;97.10;;;;;;4953796;28;20316;-68
2022/02/26 14:06:48;;;;;;;0.43;0.43;;;9.30;97.60;;;;;;4952741;28;20257;-69
2022/02/26 14:09:20;;;;;;;1.23;0.40;;;9.30;96.60;;;;;;4953469;28;20209;-69
2022/02/26 14:11:55;;;;;;;0.52;0.50;;;9.20;96.60;;;;;;4953277;28;20213;-70
2022/02/26 14:14:26;;;;;;;0.47;0.47;;;9.30;94.80;;;;;;4953893;28;20208;-70
2022/02/26 14:16:58;;;;;;;0.40;0.40;;;9.40;94.80;;;;;;4952687;28;20233;-69
2022/02/26 14:19:27;;;;;;;0.73;0.73;;;9.40;95.20;;;;;;4953724;28;20248;-69
2022/02/26 14:21:57;;;;;;;0.52;0.52;;;9.40;95.90;;;;;;4952155;28;20213;-70
2022/02/26 14:24:27;;;;;;;0.50;0.50;;;9.40;95.60;;;;;;4953408;28;20236;-70
2022/02/26 14:26:58;;;;;;;1.10;0.60;;;9.40;94.90;;;;;;4948486;28;20229;-69
2022/02/26 14:29:32;;;;;;;0.60;0.60;;;9.40;95.40;;;;;;4945386;28;20217;-69
2022/02/26 14:32:00;;;;;;;0.60;0.60;;;9.30;96.30;;;;;;4952646;28;20209;-68
2022/02/26 14:34:27;;;;;;;0.57;0.57;;;9.30;97.90;;;;;;4953261;28;20216;-68
2022/02/26 14:36:54;;;;;;;2.25;0.82;;;9.30;98.40;;;;;;4952443;28;20288;-69
2022/02/26 14:39:21;;;;;;;3.85;0.80;;;9.30;99.10;;;;;;4953392;28;20251;-69
2022/02/26 14:41:49;;;;;;;1.20;0.45;;;9.30;99.20;;;;;;4953113;28;20588;-68
2022/02/26 14:44:16;;;;;;;3.08;0.50;;;9.30;98.20;;;;;;4952943;28;20717;-70
2022/02/26 14:46:43;;;;;;;2.50;0.60;;;9.30;98.20;;;;;;4952939;28;20292;-69
2022/02/26 14:49:10;;;;;;;1.00;1.00;;;9.30;97.50;;;;;;4952376;28;20205;-69
2022/02/26 14:51:36;;;;;;;2.92;0.73;;;9.30;98.10;;;;;;4952252;28;20205;-69
2022/02/26 14:54:03;;;;;;;0.50;0.50;;;9.30;98.60;;;;;;4953208;28;20620;-69
2022/02/26 14:56:30;;;;;;;0.52;0.52;;;9.20;99.50;;;;;;4952593;28;20265;-69
2022/02/26 14:58:58;;;;;;;1.67;0.60;;;9.20;98.00;;;;;;4952989;28;20709;-68
2022/02/26 15:01:25;;;;;;;0.57;0.57;;;9.20;98.40;;;;;;4952194;28;20205;-69
2022/02/26 15:03:52;;;;;;;0.65;0.65;;;9.20;98.20;;;;;;4952809;28;20633;-69
2022/02/26 15:06:19;;;;;;;0.57;0.57;;;9.20;98.10;;;;;;4938463;28;20308;-69
2022/02/26 15:08:46;;;;;;;1.15;1.15;;;9.20;97.70;;;;;;4933359;29;20209;-69
2022/02/26 15:11:12;;;;;;;0.50;0.50;;;9.10;98.70;;;;;;4933210;29;20771;-69
2022/02/26 15:13:39;;;;;;;0.50;0.50;;;9.10;98.30;;;;;;4933253;29;20208;-69
2022/02/26 15:16:07;;;;;;;0.80;0.80;;;9.10;98.10;;;;;;4933460;29;20245;-69
2022/02/26 15:18:34;;;;;;;0.68;0.63;;;9.10;98.10;;;;;;4944940;29;20288;-69
2022/02/26 15:21:01;;;;;;;0.50;0.50;;;9.10;98.50;;;;;;4952445;28;20209;-69
2022/02/26 15:23:28;;;;;;;2.03;0.60;;;9.10;98.70;;;;;;4951949;28;20236;-69
2022/02/26 15:25:55;;;;;;;2.78;0.82;;;9.00;98.60;;;;;;4952788;28;20247;-70
2022/02/26 15:28:22;;;;;;;0.50;0.50;;;9.10;97.20;;;;;;4952498;28;20700;-69
2022/02/26 15:30:50;;;;;;;1.05;0.65;;;9.00;97.10;;;;;;4951408;28;20296;-70
2022/02/26 15:33:18;;;;;;;0.90;0.50;;;9.00;96.50;;;;;;4952629;28;20670;-70
2022/02/26 15:35:45;;;;;;;0.30;0.30;;;9.00;96.80;;;;;;4952265;28;20232;-70
2022/02/26 15:38:12;;;;;;;0.80;0.80;;;8.90;95.20;;;;;;4951936;28;20693;-71
2022/02/26 15:40:39;;;;;;;0.40;0.40;;;8.90;94.70;;;;;;4952421;28;20268;-70
2022/02/26 15:43:05;;;;;;;1.67;0.90;;;8.80;94.30;;;;;;4952199;28;20237;-70
2022/02/26 15:45:32;;;;;;;0.60;0.40;;;8.80;93.50;;;;;;4952596;28;20903;-70
2022/02/26 15:47:59;;;;;;;1.33;0.73;;;8.80;93.30;;;;;;4952518;28;20201;-71
2022/02/26 15:50:27;;;;;;;0.40;0.40;;;8.80;93.10;;;;;;4951920;28;20209;-70
2022/02/26 15:52:54;;;;;;;0.40;0.40;;;8.70;93.30;;;;;;4932400;29;20870;-70
2022/02/26 15:55:20;;;;;;;0.77;0.65;;;8.70;94.50;;;;;;4933328;29;20234;-70
2022/02/26 15:57:47;;;;;;;0.60;0.60;;;8.60;95.20;;;;;;4933391;29;20218;-70
2022/02/26 16:00:14;;;;;;;1.65;0.35;;;8.60;95.80;;;;;;4933511;29;20276;-70
2022/02/26 16:02:41;;;;;;;0.40;0.40;;;8.50;95.90;;;;;;4933263;29;20580;-70
2022/02/26 16:05:09;;;;;;;0.75;0.43;;;8.40;96.80;;;;;;4944320;28;20224;-70
2022/02/26 16:07:37;;;;;;;0.65;0.40;;;8.40;97.20;;;;;;4951608;28;20280;-70
2022/02/26 16:10:04;;;;;;;0.55;0.50;;;8.30;97.90;;;;;;4952435;28;20213;-70
2022/02/26 16:12:31;;;;;;;1.38;0.65;;;8.20;98.10;;;;;;4952446;28;20214;-69
2022/02/26 16:14:58;;;;;;;0.73;0.50;;;8.20;98.70;;;;;;4952663;28;20210;-70
2022/02/26 16:17:24;;;;;;;0.40;0.40;;;8.10;99.20;;;;;;4953951;28;20209;-70
2022/02/26 16:19:51;;;;;;;0.90;0.40;;;8.10;99.40;;;;;;4956150;28;20292;-70
2022/02/26 16:22:18;;;;;;;1.17;0.80;;;8.10;99.80;;;;;;4955804;28;20201;-70
2022/02/26 16:24:47;;;;;;;1.63;0.70;;;8.00;99.90;;;;;;4955960;28;20594;-69
2022/02/26 16:27:13;;;;;;;0.60;0.60;;;8.00;99.90;;;;;;4945762;28;20230;-70
2022/02/26 16:29:40;;;;;;;1.75;0.68;;;7.90;99.90;;;;;;4937238;29;20214;-69
2022/02/26 16:32:08;;;;;;;0.82;0.82;;;7.80;99.90;;;;;;4938268;29;20639;-70
2022/02/26 16:34:34;;;;;;;0.80;0.80;;;7.70;99.90;;;;;;4939968;29;20214;-69
2022/02/26 16:37:01;;;;;;;1.65;0.95;;;7.70;99.90;;;;;;4944369;29;20618;-70
2022/02/26 16:39:28;;;;;;;1.75;0.77;;;7.60;99.90;;;;;;4957153;28;20209;-70
2022/02/26 16:41:56;;;;;;;0.98;0.98;;;7.50;99.90;;;;;;4955693;28;20221;-70
2022/02/26 16:44:22;;;;;;;2.13;1.10;;;7.40;99.90;;;;;;4955694;28;20229;-69
2022/02/26 16:46:49;;;;;;;2.85;1.05;;;7.30;99.90;;;;;;4955669;28;20288;-69
2022/02/26 16:49:16;;;;;;;1.38;1.27;;;7.20;99.90;;;;;;4954447;28;20217;-72
2022/02/26 16:51:43;;;;;;;2.63;2.45;;;7.20;99.90;;;;;;4953627;28;21084;-69
2022/02/26 16:54:12;;;;;;;2.72;2.53;;;7.10;99.90;;;;;;4955252;28;20330;-69
2022/02/26 16:56:39;;;;;;;4.72;4.32;;;7.00;99.90;;;;;;4954917;28;20292;-69
2022/02/26 16:59:07;;;;;;;4.20;3.90;;;6.90;99.90;;;;;;4955462;28;20217;-72
2022/02/26 17:01:34;;;;;;;5.28;4.00;;;6.70;99.90;;;;;;4955410;28;20217;-71
2022/02/26 17:04:01;;;;;;;3.05;2.80;;;6.60;99.90;;;;;;4954853;28;20236;-70
2022/02/26 17:06:27;;;;;;;6.32;3.33;;;6.50;99.90;;;;;;4938738;28;20241;-71
2022/02/26 17:08:54;;;;;;;2.22;2.10;;;6.40;99.90;;;;;;4935607;29;20235;-71
2022/02/26 17:11:21;;;;;;;3.38;3.03;;;6.30;99.90;;;;;;4935170;29;20214;-71
2022/02/26 17:13:47;;;;;;;3.20;2.90;;;6.20;99.90;;;;;;4935791;29;20276;-71
2022/02/26 17:16:16;;;;;;;3.10;2.40;;;6.20;99.90;;;;;;4935239;29;20304;-70
2022/02/26 17:18:42;;;;;;;3.08;2.88;;;6.10;99.90;;;;;;4935322;29;20261;-70
2022/02/26 17:21:09;;;;;;;2.70;2.50;;;6.00;99.90;;;;;;4943160;29;20600;-70
2022/02/26 17:23:36;;;;;;;2.47;2.40;;;6.00;99.90;;;;;;4954061;28;20236;-70
2022/02/26 17:26:03;;;;;;;2.78;2.60;;;5.90;99.90;;;;;;4954724;28;20610;-70
2022/02/26 17:28:29;;;;;;;5.72;3.00;;;5.80;99.90;;;;;;4954463;28;20615;-70
2022/02/26 17:30:56;;;;;;;3.88;3.08;;;5.80;99.90;;;;;;4954531;28;20284;-70
2022/02/26 17:33:24;;;;;;;2.85;2.65;;;5.70;99.90;;;;;;4954455;28;20213;-70
2022/02/26 17:35:51;;;;;;;3.17;2.88;;;5.60;99.90;;;;;;4967208;23;20226;-69
2022/02/26 17:38:18;;;;;;;4.75;4.35;;;5.50;99.90;;;;;;4931894;29;20629;-69
2022/02/26 17:40:45;;;;;;;12.43;6.28;;;5.50;99.90;;;;;;4929027;29;20638;-70
2022/02/26 17:43:16;;;;;;;5.57;5.07;;;5.40;99.90;;;;;;4916320;29;20215;-70
2022/02/26 17:45:43;;;;;;;6.72;6.13;;;5.40;99.90;;;;;;4931706;29;20226;-68
2022/02/26 17:48:11;;;;;;;7.80;7.03;;;5.30;99.90;;;;;;4932734;29;20212;-69
2022/02/26 17:50:39;;;;;;;6.60;6.00;;;5.30;99.90;;;;;;4934776;29;20210;-70
2022/02/26 17:53:06;;;;;;;6.65;5.93;;;5.20;99.90;;;;;;4931606;29;20206;-69
2022/02/26 17:55:34;;;;;;;6.60;5.97;;;5.20;99.90;;;;;;4923962;29;20673;-69
2022/02/26 17:58:01;;;;;;;5.32;4.80;;;5.10;99.90;;;;;;4924538;29;20249;-69
2022/02/26 18:00:28;;;;;;;9.35;4.78;;;5.10;99.90;;;;;;4932722;29;20555;-68